Time;durP1;ratioP1;P1;durP2;ratioP2;P2;SDS_P1;SDS_P2;PMS_P1;PMS_P2;Temp;Humidity;BMP_temperature;BMP_pressure;BME280_temperature;BME280_humidity;BME280_pressure;Samples;Min_cycle;Max_cycle;Signal;HPM_P1;HPM_P2
2021/03/18 00:01:37;;;;;;;19.45;11.25;;;;;;;4.00;100.00;98034.75;1744615;80;20934;-65
2021/03/18 00:04:08;;;;;;;22.17;11.78;;;;;;;4.01;100.00;98032.58;1745002;80;21097;-65
2021/03/18 00:06:40;;;;;;;19.12;11.38;;;;;;;4.01;100.00;98036.50;1745084;80;21021;-64
2021/03/18 00:09:17;;;;;;;15.30;10.38;;;;;;;4.00;100.00;98035.19;1744903;80;20924;-65
2021/03/18 00:11:49;;;;;;;20.27;11.15;;;;;;;4.01;100.00;98039.11;1754170;80;20995;-64
2021/03/18 00:14:22;;;;;;;22.65;11.00;;;;;;;4.01;100.00;98036.94;1768860;80;21248;-64
2021/03/18 00:16:56;;;;;;;18.92;10.55;;;;;;;4.03;100.00;98039.11;1763081;80;21887;-65
2021/03/18 00:19:27;;;;;;;18.82;11.12;;;;;;;4.03;100.00;98039.98;1761560;79;21192;-65
2021/03/18 00:21:58;;;;;;;22.90;11.35;;;;;;;4.02;100.00;98039.55;1770086;79;20957;-66
2021/03/18 00:24:28;;;;;;;21.48;11.00;;;;;;;4.06;100.00;98040.42;1770792;79;21087;-66
2021/03/18 00:26:59;;;;;;;21.17;10.90;;;;;;;4.03;100.00;98039.98;1760908;79;21199;-67
2021/03/18 00:29:30;;;;;;;22.40;10.45;;;;;;;4.06;100.00;98041.73;1723178;82;21171;-66
2021/03/18 00:32:00;;;;;;;23.42;11.45;;;;;;;4.04;100.00;98042.16;1756733;80;21373;-65
2021/03/18 00:34:31;;;;;;;18.27;10.78;;;;;;;4.02;100.00;98046.06;1773446;80;21158;-66
2021/03/18 00:37:01;;;;;;;20.48;11.22;;;;;;;4.01;100.00;98048.67;1734672;81;21082;-64
2021/03/18 00:39:32;;;;;;;19.52;10.53;;;;;;;3.99;100.00;98049.10;1751746;80;21049;-65
2021/03/18 00:42:04;;;;;;;20.80;11.83;;;;;;;3.96;100.00;98053.02;1723427;81;21123;-65
2021/03/18 00:44:35;;;;;;;;;;;;;;;3.95;100.00;98053.88;1756842;80;21369;-65
2021/03/18 00:47:07;;;;;;;18.40;11.57;;;;;;;3.92;100.00;98059.09;1753345;80;20254;-65
2021/03/18 00:49:37;;;;;;;26.03;11.77;;;;;;;3.87;100.00;98044.73;1726416;81;21572;-65
2021/03/18 00:52:08;;;;;;;21.12;11.28;;;;;;;3.86;100.00;98047.33;1724611;81;21362;-65
2021/03/18 00:54:40;;;;;;;24.82;11.63;;;;;;;3.82;100.00;98056.02;1724501;81;21560;-65
2021/03/18 00:57:13;;;;;;;22.35;11.57;;;;;;;3.80;100.00;98053.41;1742711;81;20948;-65
2021/03/18 00:59:46;;;;;;;19.30;12.73;;;;;;;3.76;100.00;98049.02;1744970;80;21249;-64
2021/03/18 01:02:18;;;;;;;18.65;10.88;;;;;;;3.77;100.00;98049.02;1742929;80;20998;-64
2021/03/18 01:04:49;;;;;;;18.60;11.28;;;;;;;3.76;100.00;98049.02;1773213;79;21089;-64
2021/03/18 01:07:20;;;;;;;24.95;11.90;;;;;;;3.75;100.00;98053.80;1806201;78;21105;-65
2021/03/18 01:09:51;;;;;;;19.95;11.40;;;;;;;3.76;100.00;98049.88;1806219;78;21432;-65
2021/03/18 01:12:22;;;;;;;21.20;12.43;;;;;;;3.76;100.00;98045.97;1806798;78;20942;-65
2021/03/18 01:14:53;;;;;;;22.62;13.22;;;;;;;3.74;100.00;98047.70;1806688;78;20863;-65
2021/03/18 01:17:24;;;;;;;23.40;11.85;;;;;;;3.72;100.00;98044.22;1782827;78;21262;-65
2021/03/18 01:19:54;;;;;;;22.07;11.93;;;;;;;3.69;100.00;98052.03;1788587;78;21678;-65
2021/03/18 01:22:30;;;;;;;22.15;13.15;;;;;;;3.67;100.00;98045.94;1774645;79;21199;-64
2021/03/18 01:24:58;;;;;;;29.12;11.83;;;;;;;3.68;100.00;98046.81;1792669;79;21018;-65
2021/03/18 01:27:28;;;;;;;23.83;11.57;;;;;;;3.69;100.00;98045.95;1800583;79;20998;-66
2021/03/18 01:30:00;;;;;;;18.02;11.57;;;;;;;3.70;100.00;98052.47;1806672;78;21470;-66
2021/03/18 01:32:32;;;;;;;24.05;12.28;;;;;;;3.75;100.00;98045.53;1803010;78;21493;-64
2021/03/18 01:35:07;;;;;;;17.85;11.18;;;;;;;3.74;100.00;98042.92;1806328;79;21420;-66
2021/03/18 01:37:36;;;;;;;21.80;10.88;;;;;;;3.72;100.00;98043.35;1803935;79;21010;-65
2021/03/18 01:40:09;;;;;;;26.35;11.45;;;;;;;3.72;100.00;98046.83;1796402;78;21001;-66
2021/03/18 01:42:39;;;;;;;19.90;10.78;;;;;;;3.74;100.00;98048.14;1774636;80;20895;-65
2021/03/18 01:45:10;;;;;;;20.17;11.35;;;;;;;3.76;100.00;98051.19;1774519;80;21065;-66
2021/03/18 01:47:45;;;;;;;20.65;11.03;;;;;;;3.78;100.00;98050.80;1776719;79;21365;-64
2021/03/18 01:50:18;;;;;;;15.40;10.18;;;;;;;3.76;100.00;98053.80;1774596;80;21025;-65
2021/03/18 01:52:48;;;;;;;19.57;10.15;;;;;;;3.72;100.00;98058.56;1779304;79;21092;-64
2021/03/18 01:55:31;;;;;;;14.18;9.13;;;;;;;3.74;100.00;98055.96;1776342;79;21112;-64
2021/03/18 01:58:02;;;;;;;17.57;10.30;;;;;;;3.73;100.00;98062.91;1791993;78;21532;-65
2021/03/18 02:00:32;;;;;;;19.15;9.80;;;;;;;3.71;100.00;98065.95;1803465;77;21308;-65
2021/03/18 02:03:02;;;;;;;17.30;9.15;;;;;;;3.66;100.00;98069.41;1796645;78;21172;-65
2021/03/18 02:05:34;;;;;;;18.45;9.73;;;;;;;3.67;100.00;98069.41;1797936;78;21450;-65
2021/03/18 02:08:05;;;;;;;14.38;9.15;;;;;;;3.66;100.00;98075.50;1779056;78;20915;-65
2021/03/18 02:10:37;;;;;;;18.42;9.48;;;;;;;3.68;100.00;98078.98;1714524;82;21077;-64
2021/03/18 02:13:09;;;;;;;18.92;9.25;;;;;;;3.71;100.00;98084.20;1720019;81;21399;-63
2021/03/18 02:15:51;;;;;;;14.45;8.70;;;;;;;3.71;100.00;98080.73;1738237;81;21520;-65
2021/03/18 02:19:02;;;;;;;14.90;8.70;;;;;;;3.68;100.00;98081.59;1797486;78;21470;-65
2021/03/18 02:21:46;;;;;;;15.03;8.18;;;;;;;3.65;100.00;98082.01;1797516;78;21141;-64
2021/03/18 02:24:31;;;;;;;13.00;7.83;;;;;;;3.62;100.00;98080.69;1747924;79;20971;-65
2021/03/18 02:27:35;;;;;;;20.62;8.30;;;;;;;3.62;100.00;98080.27;1797778;78;21128;-65
2021/03/18 02:30:47;;;;;;;12.88;7.28;;;;;;;3.60;100.00;98080.69;1779206;78;21053;-64
2021/03/18 02:33:39;;;;;;;13.90;7.80;;;;;;;3.56;100.00;98079.36;1797223;79;20999;-65
2021/03/18 02:36:17;;;;;;;17.92;7.62;;;;;;;3.53;100.00;98084.56;1797685;78;20927;-63
2021/03/18 02:38:59;;;;;;;18.92;7.75;;;;;;;3.48;100.00;98082.81;1795500;78;21101;-65
2021/03/18 02:41:47;;;;;;;14.70;8.00;;;;;;;3.44;100.00;98082.36;1773968;79;21367;-65
2021/03/18 02:44:27;;;;;;;13.55;7.75;;;;;;;3.45;100.00;98089.74;1797372;78;20931;-64
2021/03/18 02:47:06;;;;;;;18.07;7.80;;;;;;;3.46;100.00;98090.18;1797510;78;21508;-64
2021/03/18 02:49:46;;;;;;;16.35;7.50;;;;;;;3.46;100.00;98088.87;1797684;78;21032;-65
2021/03/18 02:52:22;;;;;;;12.30;7.83;;;;;;;3.46;100.00;98094.09;1795204;79;20926;-65
2021/03/18 02:54:54;;;;;;;15.03;7.37;;;;;;;3.47;100.00;98094.53;1793650;78;21233;-65
2021/03/18 02:57:26;;;;;;;13.48;8.05;;;;;;;3.50;100.00;98099.77;1702224;82;20966;-65
2021/03/18 02:59:56;;;;;;;16.48;8.45;;;;;;;3.52;100.00;98099.77;1707390;81;21171;-65
2021/03/18 03:02:28;;;;;;;17.70;8.38;;;;;;;3.58;100.00;98107.19;1706525;82;21588;-65
2021/03/18 03:04:58;;;;;;;16.23;9.20;;;;;;;3.59;100.00;98098.50;1763830;80;21515;-64
2021/03/18 03:07:29;;;;;;;13.78;8.70;;;;;;;3.60;100.00;98102.85;1744619;81;21360;-65
2021/03/18 03:10:00;;;;;;;14.45;8.23;;;;;;;3.63;100.00;98108.08;1772963;79;20982;-65
2021/03/18 03:12:31;;;;;;;19.95;8.45;;;;;;;3.62;100.00;98102.86;1773042;79;21528;-64
2021/03/18 03:15:03;;;;;;;14.90;8.23;;;;;;;3.66;100.00;98105.92;1704930;81;21065;-65
2021/03/18 03:17:33;;;;;;;19.75;8.05;;;;;;;3.68;100.00;98110.27;1714728;81;21060;-65
2021/03/18 03:20:07;;;;;;;14.50;7.58;;;;;;;3.71;100.00;98106.81;1733222;81;21205;-64
2021/03/18 03:22:37;;;;;;;13.80;7.50;;;;;;;3.73;100.00;98111.17;1733328;81;21195;-65
2021/03/18 03:25:10;;;;;;;13.68;7.45;;;;;;;3.76;100.00;98108.57;1706898;81;21143;-65
2021/03/18 03:27:46;;;;;;;11.33;7.35;;;;;;;3.78;100.00;98108.58;1715264;81;21615;-65
2021/03/18 03:30:17;;;;;;;13.00;7.47;;;;;;;3.79;100.00;98106.00;1772664;78;21061;-65
2021/03/18 03:32:47;;;;;;;14.87;7.30;;;;;;;3.81;100.00;98104.70;1733396;81;21258;-65
2021/03/18 03:35:17;;;;;;;14.85;6.72;;;;;;;3.85;100.00;98105.59;1773585;79;20954;-65
2021/03/18 03:37:48;;;;;;;14.15;7.75;;;;;;;3.86;100.00;98107.33;1732308;81;20955;-65
2021/03/18 03:40:18;;;;;;;9.83;6.35;;;;;;;3.89;100.00;98103.43;1733205;81;21045;-65
2021/03/18 03:42:48;;;;;;;14.43;7.40;;;;;;;3.89;100.00;98099.08;1802818;78;20891;-65
2021/03/18 03:45:18;;;;;;;15.70;7.08;;;;;;;3.91;100.00;98104.31;1802082;79;21369;-65
2021/03/18 03:47:48;;;;;;;16.93;8.30;;;;;;;3.93;100.00;98098.23;1772518;81;21097;-64
2021/03/18 03:50:19;;;;;;;15.65;7.55;;;;;;;3.97;100.00;98101.72;1772635;81;20959;-65
2021/03/18 03:52:59;;;;;;;15.77;8.10;;;;;;;4.01;100.00;98101.73;1793147;79;21045;-65
2021/03/18 03:55:58;;;;;;;11.12;7.53;;;;;;;4.01;100.00;98102.16;1803829;78;21075;-65
2021/03/18 03:58:49;;;;;;;13.10;7.87;;;;;;;4.04;100.00;98106.09;1804425;79;21188;-64
2021/03/18 04:01:31;;;;;;;12.35;7.45;;;;;;;4.02;100.00;98108.69;1787953;78;21088;-64
2021/03/18 04:04:13;;;;;;;13.53;7.58;;;;;;;4.03;100.00;98109.13;1766599;79;21109;-64
2021/03/18 04:06:43;;;;;;;12.78;7.55;;;;;;;4.07;100.00;98109.58;1792613;79;21525;-63
2021/03/18 04:09:16;;;;;;;14.35;7.47;;;;;;;4.10;100.00;98117.84;1754362;79;21085;-65
2021/03/18 04:11:45;;;;;;;10.88;7.65;;;;;;;4.10;100.00;98111.33;1787533;78;21338;-65
2021/03/18 04:14:15;;;;;;;12.37;7.08;;;;;;;4.08;100.00;98112.63;1787614;79;20982;-65
2021/03/18 04:16:44;;;;;;;16.17;7.90;;;;;;;4.07;100.00;98115.23;1785322;79;21101;-65
2021/03/18 04:19:17;;;;;;;15.05;8.13;;;;;;;4.07;100.00;98113.92;1720793;81;20971;-66
2021/03/18 04:21:48;;;;;;;10.88;7.78;;;;;;;4.05;100.00;98110.44;1779531;79;21071;-65
2021/03/18 04:24:18;;;;;;;12.95;8.30;;;;;;;3.98;100.00;98117.81;1775366;79;21203;-66
2021/03/18 04:26:48;;;;;;;14.98;9.00;;;;;;;3.95;100.00;98113.89;1707449;82;20982;-64
2021/03/18 04:29:18;;;;;;;19.15;12.55;;;;;;;3.96;100.00;98116.94;1778107;79;21500;-65
2021/03/18 04:31:47;;;;;;;22.60;13.70;;;;;;;3.96;100.00;98115.20;1787026;79;20946;-65
2021/03/18 04:34:18;;;;;;;22.85;11.65;;;;;;;3.95;100.00;98117.80;1785076;79;21117;-62
2021/03/18 04:36:48;;;;;;;18.02;11.00;;;;;;;3.92;100.00;98119.09;1784350;78;21942;-65
2021/03/18 04:39:17;;;;;;;17.15;10.38;;;;;;;3.90;100.00;98120.83;1794486;79;21518;-65
2021/03/18 04:41:47;;;;;;;17.87;9.10;;;;;;;3.91;100.00;98122.57;1778693;79;21121;-67
2021/03/18 04:44:16;;;;;;;17.62;9.53;;;;;;;3.92;100.00;98125.19;1802888;78;21121;-64
2021/03/18 04:46:48;;;;;;;21.93;9.68;;;;;;;3.94;100.00;98129.97;1804350;78;20923;-64
2021/03/18 04:49:18;;;;;;;14.85;9.98;;;;;;;3.94;100.00;98130.41;1783414;79;21196;-64
2021/03/18 04:51:48;;;;;;;17.77;10.25;;;;;;;3.90;100.00;98139.96;1789204;79;20994;-66
2021/03/18 04:54:17;;;;;;;18.52;9.78;;;;;;;3.89;100.00;98136.05;1804460;79;20931;-65
2021/03/18 04:56:48;;;;;;;18.57;9.13;;;;;;;3.90;100.00;98141.27;1786084;79;20982;-65
2021/03/18 04:59:18;;;;;;;18.62;10.03;;;;;;;3.93;100.00;98150.84;1772749;79;21009;-69
2021/03/18 05:01:49;;;;;;;17.90;9.28;;;;;;;3.93;100.00;98150.41;1770537;79;21235;-65
2021/03/18 05:04:19;;;;;;;18.90;9.95;;;;;;;3.92;100.00;98148.66;1698911;82;21006;-66
2021/03/18 05:06:53;;;;;;;15.03;8.73;;;;;;;3.98;100.00;98148.69;1701322;82;21517;-65
2021/03/18 05:09:23;;;;;;;16.75;9.95;;;;;;;3.99;100.00;98149.13;1714700;82;20942;-67
2021/03/18 05:11:53;;;;;;;13.55;9.13;;;;;;;4.00;100.00;98154.78;1711593;81;21493;-66
2021/03/18 05:14:23;;;;;;;15.93;9.63;;;;;;;4.03;100.00;98157.41;1757652;80;21228;-65
2021/03/18 05:16:54;;;;;;;17.55;9.48;;;;;;;3.98;100.00;98163.04;1738302;82;21125;-65
2021/03/18 05:19:26;;;;;;;15.95;8.70;;;;;;;3.99;100.00;98167.83;1736546;81;20978;-65
2021/03/18 05:21:56;;;;;;;13.85;9.28;;;;;;;4.00;100.00;98170.88;1738597;82;20971;-66
2021/03/18 05:24:26;;;;;;;16.95;9.75;;;;;;;4.03;100.00;98169.15;1716420;82;20947;-65
2021/03/18 05:26:55;;;;;;;18.52;9.40;;;;;;;4.08;100.00;98175.69;1797426;78;21185;-66
2021/03/18 05:29:24;;;;;;;17.77;8.98;;;;;;;4.10;100.00;98175.27;1797953;78;21521;-66
2021/03/18 05:31:54;;;;;;;19.20;9.10;;;;;;;4.11;100.00;98177.88;1797629;79;20927;-65
2021/03/18 05:34:26;;;;;;;19.15;10.53;;;;;;;4.14;100.00;98180.06;1760163;80;20939;-65
2021/03/18 05:36:55;;;;;;;20.30;10.45;;;;;;;4.17;100.00;98185.30;1795125;79;20912;-65
2021/03/18 05:39:25;;;;;;;20.55;11.55;;;;;;;4.14;100.00;98184.84;1797917;78;21519;-65
2021/03/18 05:41:54;;;;;;;24.32;12.30;;;;;;;4.11;100.00;98188.75;1792174;79;20962;-65
2021/03/18 05:44:24;;;;;;;22.27;12.00;;;;;;;4.09;100.00;98191.36;1762323;79;20978;-66
2021/03/18 05:46:53;;;;;;;24.92;13.48;;;;;;;4.10;100.00;98194.84;1769924;79;20951;-65
2021/03/18 05:49:22;;;;;;;26.05;15.25;;;;;;;4.09;100.00;98190.48;1768312;79;20962;-67
2021/03/18 05:51:51;;;;;;;22.65;13.83;;;;;;;4.07;100.00;98200.05;1766595;79;21373;-67
2021/03/18 05:54:21;;;;;;;22.27;12.40;;;;;;;4.02;100.00;98198.72;1766545;79;21092;-66
2021/03/18 05:56:50;;;;;;;18.12;10.82;;;;;;;4.03;100.00;98196.55;1767540;79;20958;-66
2021/03/18 05:59:19;;;;;;;19.07;10.55;;;;;;;4.04;100.00;98204.81;1795478;78;21481;-65
2021/03/18 06:01:48;;;;;;;14.55;10.18;;;;;;;4.05;100.00;98208.30;1802506;79;21493;-66
2021/03/18 06:04:18;;;;;;;15.32;10.43;;;;;;;4.07;100.00;98207.44;1786551;79;21495;-66
2021/03/18 06:06:48;;;;;;;15.80;8.85;;;;;;;4.08;100.00;98210.92;1813065;77;20961;-66
2021/03/18 06:09:17;;;;;;;17.60;9.05;;;;;;;4.08;100.00;98209.61;1815484;79;20938;-65
2021/03/18 06:11:46;;;;;;;15.78;9.90;;;;;;;4.08;100.00;98218.75;1815186;77;21076;-66
2021/03/18 06:14:16;;;;;;;19.73;10.03;;;;;;;4.14;100.00;98217.47;1798230;79;21045;-66
2021/03/18 06:16:45;;;;;;;19.48;9.50;;;;;;;4.15;100.00;98215.30;1786589;79;21492;-66
2021/03/18 06:19:15;;;;;;;13.75;8.53;;;;;;;4.13;100.00;98226.17;1815412;77;20895;-65
2021/03/18 06:21:46;;;;;;;15.90;8.58;;;;;;;4.12;100.00;98219.20;1811833;77;21076;-66
2021/03/18 06:24:15;;;;;;;16.12;8.95;;;;;;;4.16;100.00;98217.48;1743594;81;20918;-66
2021/03/18 06:26:45;;;;;;;14.63;8.85;;;;;;;4.16;100.00;98224.87;1784047;79;21064;-65
2021/03/18 06:29:36;;;;;;;14.87;8.63;;;;;;;4.18;100.00;98230.97;1740941;81;21210;-65
2021/03/18 06:32:17;;;;;;;12.58;8.00;;;;;;;4.22;100.00;98222.72;1783300;79;20942;-66
2021/03/18 06:34:49;;;;;;;16.73;8.35;;;;;;;4.24;100.00;98228.82;1788523;79;21492;-65
2021/03/18 06:37:41;;;;;;;15.05;8.98;;;;;;;4.21;100.00;98228.81;1815562;79;21449;-65
2021/03/18 06:40:20;;;;;;;15.32;8.30;;;;;;;4.22;100.00;98235.34;1809849;77;21124;-66
2021/03/18 06:42:58;;;;;;;20.08;9.25;;;;;;;4.24;100.00;98221.86;1812005;77;22400;-67
2021/03/18 06:45:35;;;;;;;14.63;8.70;;;;;;;4.19;100.00;98230.55;1786790;77;20986;-65
2021/03/18 06:48:09;;;;;;;13.30;7.87;;;;;;;4.15;100.00;98241.40;1800880;77;20924;-66
2021/03/18 06:50:43;;;;;;;14.07;8.23;;;;;;;4.08;100.00;98235.72;1810791;79;21507;-65
2021/03/18 06:53:25;;;;;;;14.28;8.15;;;;;;;4.04;100.00;98235.26;1783747;79;21061;-65
2021/03/18 06:55:54;;;;;;;13.95;8.43;;;;;;;3.99;100.00;98250.02;1743714;81;21200;-65
2021/03/18 06:58:27;;;;;;;15.50;7.70;;;;;;;3.97;100.00;98243.92;1783706;79;21476;-65
2021/03/18 07:00:59;;;;;;;11.10;7.62;;;;;;;3.96;100.00;98250.00;1785449;79;20906;-66
2021/03/18 07:03:33;;;;;;;19.87;7.80;;;;;;;3.95;100.00;98255.66;1783584;79;21029;-66
2021/03/18 07:06:05;;;;;;;12.43;7.22;;;;;;;3.98;100.00;98254.36;1785713;79;21457;-66
2021/03/18 07:08:39;;;;;;;12.95;7.72;;;;;;;3.97;100.00;98259.14;1783678;80;21376;-66
2021/03/18 07:11:20;;;;;;;15.38;8.13;;;;;;;4.00;100.00;98260.89;1743644;81;21484;-66
2021/03/18 07:13:50;;;;;;;15.78;6.85;;;;;;;4.08;100.00;98261.81;1785726;79;20949;-66
2021/03/18 07:16:19;;;;;;;19.55;7.50;;;;;;;4.16;100.00;98257.50;1740405;81;20938;-75
2021/03/18 07:18:58;;;;;;;13.77;7.30;;;;;;;4.21;100.00;98257.09;1783880;79;20918;-68
2021/03/18 07:21:39;;;;;;;13.83;6.95;;;;;;;4.25;100.00;98267.11;1783556;79;21358;-68
2021/03/18 07:24:36;;;;;;;12.93;6.60;;;;;;;4.29;100.00;98258.46;1783325;80;20915;-67
2021/03/18 07:27:13;;;;;;;15.65;6.40;;;;;;;4.32;100.00;98251.95;1785552;79;20962;-67
2021/03/18 07:29:49;;;;;;;15.83;6.90;;;;;;;4.37;100.00;98259.37;1783797;79;20898;-67
2021/03/18 07:32:18;;;;;;;12.95;6.12;;;;;;;4.36;100.00;98271.55;1743661;81;20930;-68
2021/03/18 07:34:47;;;;;;;12.37;5.83;;;;;;;4.45;100.00;98259.39;1783838;79;22303;-68
2021/03/18 07:37:16;;;;;;;10.32;5.17;;;;;;;4.49;100.00;98261.15;1783915;79;20953;-69
2021/03/18 07:39:45;;;;;;;7.92;5.47;;;;;;;4.55;100.00;98267.27;1784621;79;20890;-68
2021/03/18 07:42:16;;;;;;;17.23;7.60;;;;;;;4.67;100.00;98262.52;1783312;80;20894;-67
2021/03/18 07:44:45;;;;;;;13.53;6.53;;;;;;;4.71;100.00;98274.28;1731421;80;20941;-67
2021/03/18 07:47:15;;;;;;;15.08;5.70;;;;;;;4.88;100.00;98270.44;1729502;81;21198;-67
2021/03/18 07:49:47;;;;;;;14.50;5.03;;;;;;;4.98;100.00;98266.98;1785845;77;20943;-66
2021/03/18 07:52:20;;;;;;;14.20;6.47;;;;;;;5.05;100.00;98270.03;1783804;79;21492;-67
2021/03/18 07:54:50;;;;;;;17.87;6.10;;;;;;;5.11;100.00;98265.25;1724412;81;20933;-67
2021/03/18 07:57:19;;;;;;;15.38;5.25;;;;;;;5.16;100.00;98261.34;1792628;77;20886;-67
2021/03/18 07:59:48;;;;;;;12.35;5.12;;;;;;;5.18;100.00;98265.70;1786043;79;21398;-59
2021/03/18 08:02:22;;;;;;;11.18;5.42;;;;;;;5.23;100.00;98261.38;1781065;78;20979;-65
2021/03/18 08:04:53;;;;;;;13.98;4.83;;;;;;;5.29;100.00;98263.13;1771475;79;21050;-67
2021/03/18 08:07:47;;;;;;;10.38;5.42;;;;;;;5.34;100.00;98257.02;1781424;79;20927;-66
2021/03/18 08:10:24;;;;;;;11.03;5.23;;;;;;;5.34;100.00;98264.00;1795845;79;20964;-66
2021/03/18 08:12:56;;;;;;;11.05;5.40;;;;;;;5.39;100.00;98260.95;1797868;79;21767;-64
2021/03/18 08:15:45;;;;;;;10.50;5.47;;;;;;;5.40;100.00;98266.61;1797485;78;20942;-67
2021/03/18 08:18:24;;;;;;;17.90;5.28;;;;;;;5.45;100.00;98264.00;1766234;80;20964;-68
2021/03/18 08:21:01;;;;;;;11.88;5.47;;;;;;;5.46;100.00;98269.66;1781519;79;20916;-66
2021/03/18 08:23:35;;;;;;;12.98;5.78;;;;;;;5.49;100.00;98272.28;1795542;78;21054;-65
2021/03/18 08:26:19;;;;;;;10.58;5.70;;;;;;;5.51;100.00;98273.15;1784074;78;21239;-65
2021/03/18 08:28:59;;;;;;;12.88;6.30;;;;;;;5.46;100.00;98261.38;1713899;82;21537;-64
2021/03/18 08:31:54;;;;;;;11.18;5.62;;;;;;;5.46;100.00;98265.73;1705810;81;21540;-64
2021/03/18 08:34:48;;;;;;;13.03;6.22;;;;;;;5.42;100.00;98270.53;1712152;82;21498;-63
2021/03/18 08:37:40;;;;;;;15.50;5.80;;;;;;;5.43;100.00;98278.38;1709278;84;20954;-67
2021/03/18 08:40:21;;;;;;;11.80;5.95;;;;;;;5.41;100.00;98277.51;1632866;86;21219;-66
2021/03/18 08:43:06;;;;;;;15.03;5.70;;;;;;;5.45;100.00;98276.64;1810022;78;22788;-64
2021/03/18 08:45:39;;;;;;;11.60;6.40;;;;;;;5.36;100.00;98276.64;1724593;81;21044;-64
2021/03/18 08:48:17;;;;;;;16.12;5.17;;;;;;;5.37;100.00;98279.25;1714869;82;21348;-63
2021/03/18 08:50:48;;;;;;;13.65;5.58;;;;;;;5.38;100.00;98277.07;1724970;82;20981;-64
2021/03/18 08:53:28;;;;;;;9.13;5.42;;;;;;;5.38;100.00;98283.61;1714693;82;21071;-65
2021/03/18 08:55:59;;;;;;;12.78;5.97;;;;;;;5.38;100.00;98283.61;1732728;81;21048;-65
2021/03/18 08:58:28;;;;;;;12.07;5.90;;;;;;;5.44;100.00;98275.33;1727286;82;21013;-64
2021/03/18 09:00:58;;;;;;;12.00;5.53;;;;;;;5.41;100.00;98280.13;1743246;81;21341;-64
2021/03/18 09:03:28;;;;;;;14.35;5.40;;;;;;;5.44;100.00;98281.87;1721711;82;21035;-64
2021/03/18 09:05:59;;;;;;;10.78;5.12;;;;;;;5.39;100.00;98283.17;1740473;81;20938;-64
2021/03/18 09:08:35;;;;;;;18.90;6.75;;;;;;;5.38;100.00;98279.69;1720653;82;21014;-64
2021/03/18 09:11:05;;;;;;;19.70;6.47;;;;;;;5.43;100.00;98282.73;1720763;82;21078;-64
2021/03/18 09:13:36;;;;;;;11.65;6.00;;;;;;;5.43;100.00;98284.92;1722727;82;21529;-65
2021/03/18 09:16:06;;;;;;;18.70;5.50;;;;;;;5.44;100.00;98285.36;1720602;82;20946;-63
2021/03/18 09:18:36;;;;;;;13.78;7.05;;;;;;;5.45;100.00;98287.09;1724648;82;21081;-65
2021/03/18 09:21:12;;;;;;;16.80;7.25;;;;;;;5.44;100.00;98290.59;1720887;82;21018;-68
2021/03/18 09:23:43;;;;;;;16.62;6.65;;;;;;;5.49;100.00;98295.81;1722718;82;21117;-68
2021/03/18 09:26:15;;;;;;;18.00;7.42;;;;;;;5.52;100.00;98294.52;1720582;82;21355;-67
2021/03/18 09:28:47;;;;;;;14.28;6.50;;;;;;;5.52;100.00;98303.67;1722657;82;21058;-69
2021/03/18 09:31:24;;;;;;;10.83;6.13;;;;;;;5.51;100.00;98302.80;1722700;82;21006;-68
2021/03/18 09:33:54;;;;;;;12.68;6.03;;;;;;;5.50;100.00;98297.56;1733135;82;21893;-67
2021/03/18 09:36:27;;;;;;;17.67;6.42;;;;;;;5.54;100.00;98300.62;1733725;80;20887;-66
2021/03/18 09:39:10;;;;;;;14.00;6.97;;;;;;;5.54;100.00;98308.03;1723817;82;21327;-62
2021/03/18 09:41:44;;;;;;;17.92;6.08;;;;;;;5.55;100.00;98307.16;1727414;82;21122;-70
2021/03/18 09:44:18;;;;;;;;;;;;;;;5.59;100.00;98305.41;1738754;82;21090;-65
2021/03/18 09:46:52;;;;;;;17.80;7.78;;;;;;;5.59;100.00;98308.90;1730095;82;20236;-66
2021/03/18 09:49:39;;;;;;;15.88;10.08;;;;;;;5.59;100.00;98311.95;1743717;80;20907;-64
2021/03/18 09:52:12;;;;;;;15.32;8.75;;;;;;;5.58;100.00;98307.59;1734925;81;21280;-66
2021/03/18 09:54:41;;;;;;;;;;;;;;;5.63;100.00;98315.87;1736391;81;21000;-63
2021/03/18 09:57:11;;;;;;;9.70;4.42;;;;;;;5.62;100.00;98306.72;1734637;81;20516;-66
2021/03/18 09:59:40;;;;;;;15.80;7.50;;;;;;;5.59;100.00;98314.13;1734160;81;21000;-65
2021/03/18 10:02:10;;;;;;;12.18;5.20;;;;;;;5.60;100.00;98313.26;1734629;81;20996;-65
2021/03/18 10:04:43;;;;;;;11.80;4.40;;;;;;;5.61;100.00;98317.63;1690003;82;21208;-65
2021/03/18 10:07:14;;;;;;;16.25;5.10;;;;;;;5.62;100.00;98312.83;1733430;80;20954;-68
2021/03/18 10:09:46;;;;;;;12.67;4.00;;;;;;;5.63;100.00;98319.80;1726801;80;21505;-68
2021/03/18 10:12:22;;;;;;;8.80;3.60;;;;;;;5.65;100.00;98315.44;1714418;82;22455;-69
2021/03/18 10:15:05;;;;;;;12.00;3.67;;;;;;;5.65;100.00;98322.41;1709260;84;21054;-68
2021/03/18 10:17:41;;;;;;;13.15;4.05;;;;;;;5.69;100.00;98313.29;1722038;82;21340;-68
2021/03/18 10:20:19;;;;;;;12.78;4.08;;;;;;;5.73;100.00;98325.94;1702310;82;21147;-64
2021/03/18 10:23:01;;;;;;;11.08;3.40;;;;;;;5.76;100.00;98331.17;1738012;80;21060;-66
2021/03/18 10:25:34;;;;;;;12.25;3.58;;;;;;;5.82;100.00;98328.98;1730355;82;20978;-62
2021/03/18 10:28:14;;;;;;;8.95;3.30;;;;;;;5.91;100.00;98332.94;1738529;80;21168;-66
2021/03/18 10:30:46;;;;;;;22.77;4.87;;;;;;;6.02;100.00;98331.62;1737580;81;21198;-67
2021/03/18 10:33:25;;;;;;;15.40;3.77;;;;;;;6.18;100.00;98332.06;1796769;78;21053;-67
2021/03/18 10:35:59;;;;;;;14.00;4.40;;;;;;;6.27;100.00;98331.61;1783462;79;21006;-68
2021/03/18 10:38:37;;;;;;;6.58;3.60;;;;;;;6.38;100.00;98325.47;1695285;82;21141;-68
2021/03/18 10:41:11;;;;;;;9.48;3.00;;;;;;;6.52;100.00;98326.30;1743510;81;21027;-69
2021/03/18 10:43:43;;;;;;;9.58;3.50;;;;;;;6.58;100.00;98320.59;1742431;81;21365;-67
2021/03/18 10:46:16;;;;;;;9.80;3.12;;;;;;;6.63;100.00;98320.17;1783313;79;21001;-68
2021/03/18 10:48:49;;;;;;;20.90;4.17;;;;;;;6.57;100.00;98320.16;1783326;79;20930;-68
2021/03/18 10:51:20;;;;;;;13.48;3.90;;;;;;;6.52;100.00;98327.61;1783302;80;21128;-68
2021/03/18 10:53:53;;;;;;;11.35;3.67;;;;;;;6.43;100.00;98321.09;1790159;79;20986;-68
2021/03/18 10:56:27;;;;;;;11.83;3.90;;;;;;;6.37;100.00;98315.86;1804914;77;21201;-68
2021/03/18 10:59:14;;;;;;;8.45;4.12;;;;;;;6.26;100.00;98323.31;1809891;79;21488;-66
2021/03/18 11:01:43;;;;;;;11.57;3.92;;;;;;;6.14;100.00;98323.30;1783761;79;20974;-68
2021/03/18 11:04:13;;;;;;;9.75;3.72;;;;;;;6.05;100.00;98325.06;1783171;79;21535;-68
2021/03/18 11:06:48;;;;;;;12.95;4.45;;;;;;;6.02;100.00;98328.56;1808909;79;20983;-67
2021/03/18 11:09:19;;;;;;;6.75;3.85;;;;;;;6.03;100.00;98317.66;1783151;79;21368;-68
2021/03/18 11:12:00;;;;;;;13.00;4.17;;;;;;;6.01;100.00;98318.97;1786399;79;21026;-68
2021/03/18 11:14:31;;;;;;;16.65;4.47;;;;;;;6.02;100.00;98327.69;1813629;79;21489;-68
2021/03/18 11:17:07;;;;;;;14.15;4.55;;;;;;;6.04;100.00;98309.80;1813653;79;20962;-66
2021/03/18 11:19:39;;;;;;;13.43;3.98;;;;;;;6.05;100.00;98317.22;1739041;81;20935;-68
2021/03/18 11:22:09;;;;;;;9.05;3.67;;;;;;;6.02;100.00;98308.06;1728652;81;21213;-68
2021/03/18 11:24:39;;;;;;;11.35;3.90;;;;;;;5.97;100.00;98312.86;1815182;77;21555;-66
2021/03/18 11:27:08;;;;;;;8.63;3.37;;;;;;;5.93;100.00;98305.89;1801482;79;21018;-65
2021/03/18 11:29:39;;;;;;;8.65;6.30;;;;;;;5.87;100.00;98308.92;1797366;78;21459;-66
2021/03/18 11:32:09;;;;;;;5.40;3.37;;;;;;;5.86;100.00;98307.17;1783320;79;21559;-65
2021/03/18 11:34:40;;;;;;;4.17;2.70;;;;;;;5.83;100.00;98316.34;1783205;80;21435;-67
2021/03/18 11:37:13;;;;;;;3.35;2.90;;;;;;;5.65;100.00;98316.75;1786118;77;21005;-66
2021/03/18 11:39:44;;;;;;;3.30;2.95;;;;;;;5.48;100.00;98317.18;1811697;77;20923;-68
2021/03/18 11:42:13;;;;;;;8.30;4.05;;;;;;;5.36;100.00;98312.81;1731536;81;20961;-68
2021/03/18 11:44:43;;;;;;;3.25;2.50;;;;;;;5.28;100.00;98309.75;1783222;79;20985;-68
2021/03/18 11:47:14;;;;;;;5.08;3.40;;;;;;;5.22;100.00;98308.00;1805181;79;21382;-68
2021/03/18 11:49:44;;;;;;;3.62;2.90;;;;;;;5.20;100.00;98302.30;1785425;79;20942;-68
2021/03/18 11:52:13;;;;;;;4.70;2.80;;;;;;;5.18;100.00;98299.69;1789194;79;20879;-69
2021/03/18 11:54:44;;;;;;;7.12;3.30;;;;;;;5.21;100.00;98311.92;1809817;79;21524;-69